sensor_id;sensor_type;location;lat;lon;timestamp;temperature;humidity
59881;DHT22;45751;51.380;10.326;2023-08-06T00:00:22;15.50;99.90
59881;DHT22;45751;51.380;10.326;2023-08-06T00:02:49;15.60;99.90
59881;DHT22;45751;51.380;10.326;2023-08-06T00:05:16;15.60;99.90
59881;DHT22;45751;51.380;10.326;2023-08-06T00:07:44;15.50;99.90
59881;DHT22;45751;51.380;10.326;2023-08-06T00:10:11;15.50;99.90
59881;DHT22;45751;51.380;10.326;2023-08-06T00:12:38;15.50;99.90
59881;DHT22;45751;51.380;10.326;2023-08-06T00:15:06;15.50;99.90
59881;DHT22;45751;51.380;10.326;2023-08-06T00:17:34;15.50;99.90
59881;DHT22;45751;51.380;10.326;2023-08-06T00:20:02;15.50;99.90
59881;DHT22;45751;51.380;10.326;2023-08-06T00:22:37;15.50;99.90
59881;DHT22;45751;51.380;10.326;2023-08-06T00:25:05;15.50;99.90
59881;DHT22;45751;51.380;10.326;2023-08-06T00:27:32;15.40;99.90
59881;DHT22;45751;51.380;10.326;2023-08-06T00:29:59;15.40;99.90
59881;DHT22;45751;51.380;10.326;2023-08-06T00:32:26;15.40;99.90
59881;DHT22;45751;51.380;10.326;2023-08-06T00:34:53;15.40;99.90
59881;DHT22;45751;51.380;10.326;2023-08-06T00:37:20;15.40;99.90
59881;DHT22;45751;51.380;10.326;2023-08-06T00:39:47;15.40;99.90
59881;DHT22;45751;51.380;10.326;2023-08-06T00:42:14;15.40;99.90
59881;DHT22;45751;51.380;10.326;2023-08-06T00:44:41;15.40;99.90
59881;DHT22;45751;51.380;10.326;2023-08-06T00:47:08;15.40;99.90
59881;DHT22;45751;51.380;10.326;2023-08-06T00:49:36;15.30;99.90
59881;DHT22;45751;51.380;10.326;2023-08-06T00:52:07;15.40;99.90
59881;DHT22;45751;51.380;10.326;2023-08-06T00:54:36;15.40;99.90
59881;DHT22;45751;51.380;10.326;2023-08-06T00:57:04;15.40;99.90
59881;DHT22;45751;51.380;10.326;2023-08-06T00:59:31;15.40;99.90
59881;DHT22;45751;51.380;10.326;2023-08-06T01:01:59;15.40;99.90
59881;DHT22;45751;51.380;10.326;2023-08-06T01:04:26;15.40;99.90
59881;DHT22;45751;51.380;10.326;2023-08-06T01:07:06;15.40;99.90
59881;DHT22;45751;51.380;10.326;2023-08-06T01:09:48;15.30;99.90
59881;DHT22;45751;51.380;10.326;2023-08-06T01:15:16;15.30;99.90
59881;DHT22;45751;51.380;10.326;2023-08-06T01:17:45;15.30;99.90
59881;DHT22;45751;51.380;10.326;2023-08-06T01:20:13;15.30;99.90
59881;DHT22;45751;51.380;10.326;2023-08-06T01:22:40;15.30;99.90
59881;DHT22;45751;51.380;10.326;2023-08-06T01:25:07;15.20;99.90
59881;DHT22;45751;51.380;10.326;2023-08-06T01:27:49;15.30;99.90
59881;DHT22;45751;51.380;10.326;2023-08-06T01:30:18;15.20;99.90
59881;DHT22;45751;51.380;10.326;2023-08-06T01:32:50;15.20;99.90
59881;DHT22;45751;51.380;10.326;2023-08-06T01:35:21;15.20;99.90
59881;DHT22;45751;51.380;10.326;2023-08-06T01:37:48;15.20;99.90
59881;DHT22;45751;51.380;10.326;2023-08-06T01:40:15;15.20;99.90
59881;DHT22;45751;51.380;10.326;2023-08-06T01:42:42;15.20;99.90
59881;DHT22;45751;51.380;10.326;2023-08-06T01:45:09;15.10;99.90
59881;DHT22;45751;51.380;10.326;2023-08-06T01:47:36;15.10;99.90
59881;DHT22;45751;51.380;10.326;2023-08-06T01:50:04;15.10;99.90
59881;DHT22;45751;51.380;10.326;2023-08-06T01:52:31;15.10;99.90
59881;DHT22;45751;51.380;10.326;2023-08-06T01:54:58;15.10;99.90
59881;DHT22;45751;51.380;10.326;2023-08-06T01:57:24;15.10;99.90
59881;DHT22;45751;51.380;10.326;2023-08-06T01:59:51;15.10;99.90
59881;DHT22;45751;51.380;10.326;2023-08-06T02:02:18;15.10;99.90
59881;DHT22;45751;51.380;10.326;2023-08-06T02:04:46;15.10;99.90
59881;DHT22;45751;51.380;10.326;2023-08-06T02:07:13;15.00;99.90
59881;DHT22;45751;51.380;10.326;2023-08-06T02:09:40;15.00;99.90
59881;DHT22;45751;51.380;10.326;2023-08-06T02:12:07;15.00;99.90
59881;DHT22;45751;51.380;10.326;2023-08-06T02:14:34;15.00;99.90
59881;DHT22;45751;51.380;10.326;2023-08-06T02:17:01;15.00;99.90
59881;DHT22;45751;51.380;10.326;2023-08-06T02:19:28;14.90;99.90
59881;DHT22;45751;51.380;10.326;2023-08-06T02:21:55;14.90;99.90
59881;DHT22;45751;51.380;10.326;2023-08-06T02:24:22;15.00;99.90
59881;DHT22;45751;51.380;10.326;2023-08-06T02:26:49;15.00;99.90
59881;DHT22;45751;51.380;10.326;2023-08-06T02:29:18;15.00;99.90
59881;DHT22;45751;51.380;10.326;2023-08-06T02:31:45;15.00;99.90
59881;DHT22;45751;51.380;10.326;2023-08-06T02:34:12;15.00;99.90
59881;DHT22;45751;51.380;10.326;2023-08-06T02:36:38;15.00;99.90
59881;DHT22;45751;51.380;10.326;2023-08-06T02:39:06;15.00;99.90
59881;DHT22;45751;51.380;10.326;2023-08-06T02:41:32;15.00;99.90
59881;DHT22;45751;51.380;10.326;2023-08-06T02:43:59;15.00;99.90
59881;DHT22;45751;51.380;10.326;2023-08-06T02:46:26;14.90;99.90
59881;DHT22;45751;51.380;10.326;2023-08-06T02:48:53;14.90;99.90
59881;DHT22;45751;51.380;10.326;2023-08-06T02:51:21;14.90;99.90
59881;DHT22;45751;51.380;10.326;2023-08-06T02:53:48;14.90;99.90
59881;DHT22;45751;51.380;10.326;2023-08-06T02:56:17;14.90;99.90
59881;DHT22;45751;51.380;10.326;2023-08-06T02:59:07;14.80;99.90
59881;DHT22;45751;51.380;10.326;2023-08-06T03:01:45;14.80;99.90
59881;DHT22;45751;51.380;10.326;2023-08-06T03:04:18;14.80;99.90
59881;DHT22;45751;51.380;10.326;2023-08-06T03:06:49;14.80;99.90
59881;DHT22;45751;51.380;10.326;2023-08-06T03:09:18;14.70;99.90
59881;DHT22;45751;51.380;10.326;2023-08-06T03:11:47;14.70;99.90
59881;DHT22;45751;51.380;10.326;2023-08-06T03:14:15;14.70;99.90
59881;DHT22;45751;51.380;10.326;2023-08-06T03:16:43;14.70;99.90
59881;DHT22;45751;51.380;10.326;2023-08-06T03:19:13;14.70;99.90
59881;DHT22;45751;51.380;10.326;2023-08-06T03:21:40;14.70;99.90
59881;DHT22;45751;51.380;10.326;2023-08-06T03:24:07;14.70;99.90
59881;DHT22;45751;51.380;10.326;2023-08-06T03:26:36;14.80;99.90
59881;DHT22;45751;51.380;10.326;2023-08-06T03:29:03;14.80;99.90
59881;DHT22;45751;51.380;10.326;2023-08-06T03:31:33;14.80;99.90
59881;DHT22;45751;51.380;10.326;2023-08-06T03:34:01;14.80;99.90
59881;DHT22;45751;51.380;10.326;2023-08-06T03:36:30;14.70;99.90
59881;DHT22;45751;51.380;10.326;2023-08-06T03:38:57;14.70;99.90
59881;DHT22;45751;51.380;10.326;2023-08-06T03:41:24;14.70;99.90
59881;DHT22;45751;51.380;10.326;2023-08-06T03:43:51;14.70;99.90
59881;DHT22;45751;51.380;10.326;2023-08-06T03:46:23;14.70;99.90
59881;DHT22;45751;51.380;10.326;2023-08-06T03:48:52;14.70;99.90
59881;DHT22;45751;51.380;10.326;2023-08-06T03:51:19;14.70;99.90
59881;DHT22;45751;51.380;10.326;2023-08-06T03:53:47;14.70;99.90
59881;DHT22;45751;51.380;10.326;2023-08-06T03:56:14;14.70;99.90
59881;DHT22;45751;51.380;10.326;2023-08-06T03:58:42;14.70;99.90
59881;DHT22;45751;51.380;10.326;2023-08-06T04:01:09;14.70;99.90
59881;DHT22;45751;51.380;10.326;2023-08-06T04:03:43;14.70;99.90
59881;DHT22;45751;51.380;10.326;2023-08-06T04:06:10;14.70;99.90
59881;DHT22;45751;51.380;10.326;2023-08-06T04:08:37;14.60;99.90
59881;DHT22;45751;51.380;10.326;2023-08-06T04:11:04;14.60;99.90
59881;DHT22;45751;51.380;10.326;2023-08-06T04:13:30;14.50;99.90
59881;DHT22;45751;51.380;10.326;2023-08-06T04:16:01;14.60;99.90
59881;DHT22;45751;51.380;10.326;2023-08-06T04:18:30;14.60;99.90
59881;DHT22;45751;51.380;10.326;2023-08-06T04:20:56;14.60;99.90
59881;DHT22;45751;51.380;10.326;2023-08-06T04:23:24;14.60;99.90
59881;DHT22;45751;51.380;10.326;2023-08-06T04:25:58;14.60;99.90
59881;DHT22;45751;51.380;10.326;2023-08-06T04:28:30;14.60;99.90
59881;DHT22;45751;51.380;10.326;2023-08-06T04:30:58;14.60;99.90
59881;DHT22;45751;51.380;10.326;2023-08-06T04:33:25;14.60;99.90
59881;DHT22;45751;51.380;10.326;2023-08-06T04:35:56;14.60;99.90
59881;DHT22;45751;51.380;10.326;2023-08-06T04:38:25;14.50;99.90
59881;DHT22;45751;51.380;10.326;2023-08-06T04:40:53;14.60;99.90
59881;DHT22;45751;51.380;10.326;2023-08-06T04:43:21;14.60;99.90
59881;DHT22;45751;51.380;10.326;2023-08-06T04:45:50;14.60;99.90
59881;DHT22;45751;51.380;10.326;2023-08-06T04:48:17;14.60;99.90
59881;DHT22;45751;51.380;10.326;2023-08-06T04:50:45;14.60;99.90
59881;DHT22;45751;51.380;10.326;2023-08-06T04:53:12;14.60;99.90
59881;DHT22;45751;51.380;10.326;2023-08-06T04:55:39;14.60;99.90
59881;DHT22;45751;51.380;10.326;2023-08-06T04:58:06;14.60;99.90
59881;DHT22;45751;51.380;10.326;2023-08-06T05:00:33;14.60;99.90
59881;DHT22;45751;51.380;10.326;2023-08-06T05:03:00;14.60;99.90
59881;DHT22;45751;51.380;10.326;2023-08-06T05:05:28;14.60;99.90
59881;DHT22;45751;51.380;10.326;2023-08-06T05:07:56;14.70;99.90
59881;DHT22;45751;51.380;10.326;2023-08-06T05:10:27;14.70;99.90
59881;DHT22;45751;51.380;10.326;2023-08-06T05:12:54;14.70;99.90
59881;DHT22;45751;51.380;10.326;2023-08-06T05:15:21;14.70;99.90
59881;DHT22;45751;51.380;10.326;2023-08-06T05:17:49;14.70;99.90
59881;DHT22;45751;51.380;10.326;2023-08-06T05:20:16;14.70;99.90
59881;DHT22;45751;51.380;10.326;2023-08-06T05:22:44;14.70;99.90
59881;DHT22;45751;51.380;10.326;2023-08-06T05:25:13;14.80;99.90
59881;DHT22;45751;51.380;10.326;2023-08-06T05:27:40;14.80;99.90
59881;DHT22;45751;51.380;10.326;2023-08-06T05:30:08;14.80;99.90
59881;DHT22;45751;51.380;10.326;2023-08-06T05:32:35;14.80;99.90
59881;DHT22;45751;51.380;10.326;2023-08-06T05:35:02;14.80;99.90
59881;DHT22;45751;51.380;10.326;2023-08-06T05:37:29;14.90;99.90
59881;DHT22;45751;51.380;10.326;2023-08-06T05:39:56;14.90;99.90
59881;DHT22;45751;51.380;10.326;2023-08-06T05:42:23;14.90;99.90
59881;DHT22;45751;51.380;10.326;2023-08-06T05:44:50;15.00;99.90
59881;DHT22;45751;51.380;10.326;2023-08-06T05:47:16;15.00;99.90
59881;DHT22;45751;51.380;10.326;2023-08-06T05:49:43;15.00;99.90
59881;DHT22;45751;51.380;10.326;2023-08-06T05:52:10;15.00;99.90
59881;DHT22;45751;51.380;10.326;2023-08-06T05:54:37;15.00;99.90
59881;DHT22;45751;51.380;10.326;2023-08-06T05:57:04;15.00;99.90
59881;DHT22;45751;51.380;10.326;2023-08-06T05:59:31;15.00;99.90
59881;DHT22;45751;51.380;10.326;2023-08-06T06:01:58;15.00;99.90
59881;DHT22;45751;51.380;10.326;2023-08-06T06:04:25;15.00;99.90
59881;DHT22;45751;51.380;10.326;2023-08-06T06:06:52;15.00;99.90
59881;DHT22;45751;51.380;10.326;2023-08-06T06:09:19;15.00;99.90
59881;DHT22;45751;51.380;10.326;2023-08-06T06:11:46;15.00;99.90
59881;DHT22;45751;51.380;10.326;2023-08-06T06:14:14;15.00;99.90
59881;DHT22;45751;51.380;10.326;2023-08-06T06:16:41;15.00;99.90
59881;DHT22;45751;51.380;10.326;2023-08-06T06:19:08;14.90;99.90
59881;DHT22;45751;51.380;10.326;2023-08-06T06:21:34;14.90;99.90
59881;DHT22;45751;51.380;10.326;2023-08-06T06:24:01;14.90;99.90
59881;DHT22;45751;51.380;10.326;2023-08-06T06:26:30;14.90;99.90
59881;DHT22;45751;51.380;10.326;2023-08-06T06:28:57;14.90;99.90
59881;DHT22;45751;51.380;10.326;2023-08-06T06:31:24;14.90;99.90
59881;DHT22;45751;51.380;10.326;2023-08-06T06:33:51;14.90;99.90
59881;DHT22;45751;51.380;10.326;2023-08-06T06:36:20;14.90;99.90
59881;DHT22;45751;51.380;10.326;2023-08-06T06:38:47;14.90;99.90
59881;DHT22;45751;51.380;10.326;2023-08-06T06:41:15;14.90;99.90
59881;DHT22;45751;51.380;10.326;2023-08-06T06:43:42;14.80;99.90
59881;DHT22;45751;51.380;10.326;2023-08-06T06:46:09;14.80;99.90
59881;DHT22;45751;51.380;10.326;2023-08-06T06:48:36;14.90;99.90
59881;DHT22;45751;51.380;10.326;2023-08-06T06:51:03;14.90;99.90
59881;DHT22;45751;51.380;10.326;2023-08-06T06:53:30;14.80;99.90
59881;DHT22;45751;51.380;10.326;2023-08-06T06:56:04;14.90;99.90
59881;DHT22;45751;51.380;10.326;2023-08-06T06:58:32;14.90;99.90
59881;DHT22;45751;51.380;10.326;2023-08-06T07:00:59;14.90;99.90
59881;DHT22;45751;51.380;10.326;2023-08-06T07:03:26;15.00;99.90
59881;DHT22;45751;51.380;10.326;2023-08-06T07:05:57;15.00;99.90
59881;DHT22;45751;51.380;10.326;2023-08-06T07:08:27;15.00;99.90
59881;DHT22;45751;51.380;10.326;2023-08-06T07:11:02;15.00;99.90
59881;DHT22;45751;51.380;10.326;2023-08-06T07:13:29;15.00;99.90
59881;DHT22;45751;51.380;10.326;2023-08-06T07:15:56;15.00;99.90
59881;DHT22;45751;51.380;10.326;2023-08-06T07:18:24;15.00;99.90
59881;DHT22;45751;51.380;10.326;2023-08-06T07:20:52;15.10;99.90
59881;DHT22;45751;51.380;10.326;2023-08-06T07:23:20;15.10;99.90
59881;DHT22;45751;51.380;10.326;2023-08-06T07:25:48;15.10;99.90
59881;DHT22;45751;51.380;10.326;2023-08-06T07:28:16;15.20;99.90
59881;DHT22;45751;51.380;10.326;2023-08-06T07:30:44;15.20;99.90
59881;DHT22;45751;51.380;10.326;2023-08-06T07:33:11;15.30;99.90
59881;DHT22;45751;51.380;10.326;2023-08-06T07:35:38;15.30;99.90
59881;DHT22;45751;51.380;10.326;2023-08-06T07:38:05;15.40;99.90
59881;DHT22;45751;51.380;10.326;2023-08-06T07:40:32;15.40;99.90
59881;DHT22;45751;51.380;10.326;2023-08-06T07:42:59;15.40;99.90
59881;DHT22;45751;51.380;10.326;2023-08-06T07:45:26;15.50;99.90
59881;DHT22;45751;51.380;10.326;2023-08-06T07:47:53;15.50;99.90
59881;DHT22;45751;51.380;10.326;2023-08-06T07:50:20;15.60;99.90
59881;DHT22;45751;51.380;10.326;2023-08-06T07:52:47;15.60;99.90
59881;DHT22;45751;51.380;10.326;2023-08-06T07:55:14;15.60;99.90
59881;DHT22;45751;51.380;10.326;2023-08-06T07:57:42;15.60;99.90
59881;DHT22;45751;51.380;10.326;2023-08-06T08:00:09;15.70;99.90
59881;DHT22;45751;51.380;10.326;2023-08-06T08:02:40;15.70;99.90
59881;DHT22;45751;51.380;10.326;2023-08-06T08:05:07;15.80;99.90
59881;DHT22;45751;51.380;10.326;2023-08-06T08:07:36;15.80;99.90
59881;DHT22;45751;51.380;10.326;2023-08-06T08:10:03;15.80;99.90
59881;DHT22;45751;51.380;10.326;2023-08-06T08:12:31;15.90;99.90
59881;DHT22;45751;51.380;10.326;2023-08-06T08:14:58;15.90;99.90
59881;DHT22;45751;51.380;10.326;2023-08-06T08:17:25;16.00;99.90
59881;DHT22;45751;51.380;10.326;2023-08-06T08:19:52;16.00;99.90
59881;DHT22;45751;51.380;10.326;2023-08-06T08:22:19;16.10;99.90
59881;DHT22;45751;51.380;10.326;2023-08-06T08:24:46;16.10;99.90
59881;DHT22;45751;51.380;10.326;2023-08-06T08:27:12;16.20;99.90
59881;DHT22;45751;51.380;10.326;2023-08-06T08:29:39;16.20;99.90
59881;DHT22;45751;51.380;10.326;2023-08-06T08:32:06;16.30;99.90
59881;DHT22;45751;51.380;10.326;2023-08-06T08:34:33;16.30;99.90
59881;DHT22;45751;51.380;10.326;2023-08-06T08:37:00;16.40;99.90
59881;DHT22;45751;51.380;10.326;2023-08-06T08:39:27;16.40;99.90
59881;DHT22;45751;51.380;10.326;2023-08-06T08:41:53;16.40;99.90
59881;DHT22;45751;51.380;10.326;2023-08-06T08:44:21;16.50;99.90
59881;DHT22;45751;51.380;10.326;2023-08-06T08:46:48;16.50;99.90
59881;DHT22;45751;51.380;10.326;2023-08-06T08:49:16;16.50;99.90
59881;DHT22;45751;51.380;10.326;2023-08-06T08:51:44;16.60;99.90
59881;DHT22;45751;51.380;10.326;2023-08-06T08:54:13;16.60;99.90
59881;DHT22;45751;51.380;10.326;2023-08-06T08:56:42;16.70;99.90
59881;DHT22;45751;51.380;10.326;2023-08-06T08:59:10;16.70;99.90
59881;DHT22;45751;51.380;10.326;2023-08-06T09:01:38;16.70;99.90
59881;DHT22;45751;51.380;10.326;2023-08-06T09:04:07;16.70;99.90
59881;DHT22;45751;51.380;10.326;2023-08-06T09:06:37;16.70;99.90
59881;DHT22;45751;51.380;10.326;2023-08-06T09:09:25;16.70;99.90
59881;DHT22;45751;51.380;10.326;2023-08-06T09:11:55;16.80;99.90
59881;DHT22;45751;51.380;10.326;2023-08-06T09:14:26;16.70;99.90
59881;DHT22;45751;51.380;10.326;2023-08-06T09:16:54;16.70;99.70
59881;DHT22;45751;51.380;10.326;2023-08-06T09:19:21;16.70;99.90
59881;DHT22;45751;51.380;10.326;2023-08-06T09:21:51;16.70;99.90
59881;DHT22;45751;51.380;10.326;2023-08-06T09:24:18;16.80;99.90
59881;DHT22;45751;51.380;10.326;2023-08-06T09:26:45;16.80;99.20
59881;DHT22;45751;51.380;10.326;2023-08-06T09:29:12;16.80;98.70
59881;DHT22;45751;51.380;10.326;2023-08-06T09:31:44;16.80;99.10
59881;DHT22;45751;51.380;10.326;2023-08-06T09:34:23;16.80;99.60
59881;DHT22;45751;51.380;10.326;2023-08-06T09:36:54;16.90;99.10
59881;DHT22;45751;51.380;10.326;2023-08-06T09:39:26;16.90;99.40
59881;DHT22;45751;51.380;10.326;2023-08-06T09:42:01;17.00;99.30
59881;DHT22;45751;51.380;10.326;2023-08-06T09:44:31;17.00;99.10
59881;DHT22;45751;51.380;10.326;2023-08-06T09:47:00;17.00;99.40
59881;DHT22;45751;51.380;10.326;2023-08-06T09:49:40;17.10;99.20
59881;DHT22;45751;51.380;10.326;2023-08-06T09:52:13;17.10;98.30
59881;DHT22;45751;51.380;10.326;2023-08-06T09:54:43;17.20;98.00
59881;DHT22;45751;51.380;10.326;2023-08-06T09:57:12;17.20;98.00
59881;DHT22;45751;51.380;10.326;2023-08-06T09:59:39;17.30;97.70
59881;DHT22;45751;51.380;10.326;2023-08-06T10:02:12;17.40;97.50
59881;DHT22;45751;51.380;10.326;2023-08-06T10:04:40;17.40;97.60
59881;DHT22;45751;51.380;10.326;2023-08-06T10:07:08;17.60;96.30
59881;DHT22;45751;51.380;10.326;2023-08-06T10:09:35;17.60;95.30
59881;DHT22;45751;51.380;10.326;2023-08-06T10:12:02;17.60;94.90
59881;DHT22;45751;51.380;10.326;2023-08-06T10:14:35;17.60;94.50
59881;DHT22;45751;51.380;10.326;2023-08-06T10:17:03;17.60;94.10
59881;DHT22;45751;51.380;10.326;2023-08-06T10:19:31;17.60;94.30
59881;DHT22;45751;51.380;10.326;2023-08-06T10:27:32;17.70;93.20
59881;DHT22;45751;51.380;10.326;2023-08-06T10:30:22;17.70;93.70
59881;DHT22;45751;51.380;10.326;2023-08-06T10:32:58;17.80;93.60
59881;DHT22;45751;51.380;10.326;2023-08-06T10:35:41;17.80;93.00
59881;DHT22;45751;51.380;10.326;2023-08-06T10:38:14;17.80;92.10
59881;DHT22;45751;51.380;10.326;2023-08-06T10:41:02;17.90;92.30
59881;DHT22;45751;51.380;10.326;2023-08-06T10:43:34;18.00;91.40
59881;DHT22;45751;51.380;10.326;2023-08-06T10:46:02;18.00;88.20
59881;DHT22;45751;51.380;10.326;2023-08-06T10:48:44;18.00;89.80
59881;DHT22;45751;51.380;10.326;2023-08-06T10:51:13;18.10;90.50
59881;DHT22;45751;51.380;10.326;2023-08-06T10:53:43;18.20;91.40
59881;DHT22;45751;51.380;10.326;2023-08-06T10:58:41;18.30;87.70
59881;DHT22;45751;51.380;10.326;2023-08-06T11:01:08;18.30;87.90
59881;DHT22;45751;51.380;10.326;2023-08-06T11:03:37;18.30;87.00
59881;DHT22;45751;51.380;10.326;2023-08-06T11:06:04;18.20;87.70
59881;DHT22;45751;51.380;10.326;2023-08-06T11:08:36;18.30;89.30
59881;DHT22;45751;51.380;10.326;2023-08-06T11:11:10;18.20;87.60
59881;DHT22;45751;51.380;10.326;2023-08-06T11:13:44;18.20;89.30
59881;DHT22;45751;51.380;10.326;2023-08-06T11:16:22;18.30;87.30
59881;DHT22;45751;51.380;10.326;2023-08-06T11:18:52;18.30;85.60
59881;DHT22;45751;51.380;10.326;2023-08-06T11:21:21;18.30;83.90
59881;DHT22;45751;51.380;10.326;2023-08-06T11:23:49;18.30;82.80
59881;DHT22;45751;51.380;10.326;2023-08-06T11:26:19;18.30;82.90
59881;DHT22;45751;51.380;10.326;2023-08-06T11:28:47;18.30;83.80
59881;DHT22;45751;51.380;10.326;2023-08-06T11:31:23;18.30;84.90
59881;DHT22;45751;51.380;10.326;2023-08-06T11:33:51;18.40;85.20
59881;DHT22;45751;51.380;10.326;2023-08-06T11:36:32;18.50;82.60
59881;DHT22;45751;51.380;10.326;2023-08-06T11:39:00;18.60;85.80
59881;DHT22;45751;51.380;10.326;2023-08-06T11:41:30;18.70;84.00
59881;DHT22;45751;51.380;10.326;2023-08-06T11:43:58;18.80;81.20
59881;DHT22;45751;51.380;10.326;2023-08-06T11:46:25;18.80;81.80
59881;DHT22;45751;51.380;10.326;2023-08-06T11:48:56;18.90;81.10
59881;DHT22;45751;51.380;10.326;2023-08-06T11:51:25;18.90;78.50
59881;DHT22;45751;51.380;10.326;2023-08-06T11:53:58;19.00;78.50
59881;DHT22;45751;51.380;10.326;2023-08-06T11:56:26;19.10;74.90
59881;DHT22;45751;51.380;10.326;2023-08-06T11:58:54;19.10;74.30
59881;DHT22;45751;51.380;10.326;2023-08-06T12:01:21;19.20;74.20
59881;DHT22;45751;51.380;10.326;2023-08-06T12:03:48;19.20;74.10
59881;DHT22;45751;51.380;10.326;2023-08-06T12:06:15;19.20;76.60
59881;DHT22;45751;51.380;10.326;2023-08-06T12:08:42;19.20;77.90
59881;DHT22;45751;51.380;10.326;2023-08-06T12:11:09;19.20;79.10
59881;DHT22;45751;51.380;10.326;2023-08-06T12:13:36;19.20;79.00
59881;DHT22;45751;51.380;10.326;2023-08-06T12:16:03;19.20;79.90
59881;DHT22;45751;51.380;10.326;2023-08-06T12:18:30;19.10;81.90
59881;DHT22;45751;51.380;10.326;2023-08-06T12:20:57;19.10;84.20
59881;DHT22;45751;51.380;10.326;2023-08-06T12:23:24;19.10;85.80
59881;DHT22;45751;51.380;10.326;2023-08-06T12:25:51;19.10;86.00
59881;DHT22;45751;51.380;10.326;2023-08-06T12:28:19;19.20;85.40
59881;DHT22;45751;51.380;10.326;2023-08-06T12:30:49;19.20;83.50
59881;DHT22;45751;51.380;10.326;2023-08-06T12:33:16;19.30;81.20
59881;DHT22;45751;51.380;10.326;2023-08-06T12:35:43;19.40;81.20
59881;DHT22;45751;51.380;10.326;2023-08-06T12:38:10;19.50;78.80
59881;DHT22;45751;51.380;10.326;2023-08-06T12:40:36;19.50;76.60
59881;DHT22;45751;51.380;10.326;2023-08-06T12:43:08;19.40;75.30
59881;DHT22;45751;51.380;10.326;2023-08-06T12:45:35;19.40;75.40
59881;DHT22;45751;51.380;10.326;2023-08-06T12:48:03;19.50;76.40
59881;DHT22;45751;51.380;10.326;2023-08-06T12:50:30;19.40;78.20
59881;DHT22;45751;51.380;10.326;2023-08-06T12:53:00;19.40;80.40
59881;DHT22;45751;51.380;10.326;2023-08-06T12:55:27;19.40;81.00
59881;DHT22;45751;51.380;10.326;2023-08-06T12:57:57;19.30;86.60
59881;DHT22;45751;51.380;10.326;2023-08-06T13:00:28;19.10;88.40
59881;DHT22;45751;51.380;10.326;2023-08-06T13:02:55;18.90;90.40
59881;DHT22;45751;51.380;10.326;2023-08-06T13:05:22;18.60;92.90
59881;DHT22;45751;51.380;10.326;2023-08-06T13:07:49;18.30;95.60
59881;DHT22;45751;51.380;10.326;2023-08-06T13:10:15;18.00;95.90
59881;DHT22;45751;51.380;10.326;2023-08-06T13:12:43;17.70;99.30
59881;DHT22;45751;51.380;10.326;2023-08-06T13:15:10;17.40;99.90
59881;DHT22;45751;51.380;10.326;2023-08-06T13:17:37;17.20;99.90
59881;DHT22;45751;51.380;10.326;2023-08-06T13:20:05;17.00;99.90
59881;DHT22;45751;51.380;10.326;2023-08-06T13:22:32;16.80;99.90
59881;DHT22;45751;51.380;10.326;2023-08-06T13:24:59;16.50;99.90
59881;DHT22;45751;51.380;10.326;2023-08-06T13:27:26;16.40;99.90
59881;DHT22;45751;51.380;10.326;2023-08-06T13:29:53;16.20;99.90
59881;DHT22;45751;51.380;10.326;2023-08-06T13:32:20;16.10;99.90
59881;DHT22;45751;51.380;10.326;2023-08-06T13:34:47;16.00;99.60
59881;DHT22;45751;51.380;10.326;2023-08-06T13:37:13;15.90;99.90
59881;DHT22;45751;51.380;10.326;2023-08-06T13:39:40;15.70;99.90
59881;DHT22;45751;51.380;10.326;2023-08-06T13:42:07;15.60;99.90
59881;DHT22;45751;51.380;10.326;2023-08-06T13:44:34;15.50;99.90
59881;DHT22;45751;51.380;10.326;2023-08-06T13:47:02;15.40;99.90
59881;DHT22;45751;51.380;10.326;2023-08-06T13:49:29;15.30;99.90
59881;DHT22;45751;51.380;10.326;2023-08-06T13:51:56;15.30;99.90
59881;DHT22;45751;51.380;10.326;2023-08-06T13:54:37;15.20;99.90
59881;DHT22;45751;51.380;10.326;2023-08-06T13:57:04;15.30;99.90
59881;DHT22;45751;51.380;10.326;2023-08-06T13:59:31;15.30;99.90
59881;DHT22;45751;51.380;10.326;2023-08-06T14:01:58;15.30;99.90
59881;DHT22;45751;51.380;10.326;2023-08-06T14:04:26;15.40;99.90
59881;DHT22;45751;51.380;10.326;2023-08-06T14:06:53;15.40;99.90
59881;DHT22;45751;51.380;10.326;2023-08-06T14:09:21;15.50;99.90
59881;DHT22;45751;51.380;10.326;2023-08-06T14:11:48;15.60;99.90
59881;DHT22;45751;51.380;10.326;2023-08-06T14:14:15;15.60;99.90
59881;DHT22;45751;51.380;10.326;2023-08-06T14:16:42;15.60;99.90
59881;DHT22;45751;51.380;10.326;2023-08-06T14:19:09;15.70;99.90
59881;DHT22;45751;51.380;10.326;2023-08-06T14:21:36;15.70;99.90
59881;DHT22;45751;51.380;10.326;2023-08-06T14:24:03;15.80;99.90
59881;DHT22;45751;51.380;10.326;2023-08-06T14:26:29;15.80;99.90
59881;DHT22;45751;51.380;10.326;2023-08-06T14:28:56;15.80;99.90
59881;DHT22;45751;51.380;10.326;2023-08-06T14:31:23;15.80;99.90
59881;DHT22;45751;51.380;10.326;2023-08-06T14:33:50;15.90;99.90
59881;DHT22;45751;51.380;10.326;2023-08-06T14:36:18;16.00;99.90
59881;DHT22;45751;51.380;10.326;2023-08-06T14:38:45;16.00;99.90
59881;DHT22;45751;51.380;10.326;2023-08-06T14:41:25;16.10;99.90
59881;DHT22;45751;51.380;10.326;2023-08-06T14:43:52;16.10;99.90
59881;DHT22;45751;51.380;10.326;2023-08-06T14:46:20;16.20;99.90
59881;DHT22;45751;51.380;10.326;2023-08-06T14:48:47;16.20;99.90
59881;DHT22;45751;51.380;10.326;2023-08-06T14:51:14;16.20;99.90
59881;DHT22;45751;51.380;10.326;2023-08-06T14:53:41;16.30;99.90
59881;DHT22;45751;51.380;10.326;2023-08-06T14:56:08;16.30;99.90
59881;DHT22;45751;51.380;10.326;2023-08-06T14:58:35;16.40;99.90
59881;DHT22;45751;51.380;10.326;2023-08-06T15:01:02;16.50;99.90
59881;DHT22;45751;51.380;10.326;2023-08-06T15:03:29;16.60;99.90
59881;DHT22;45751;51.380;10.326;2023-08-06T15:05:57;16.60;99.90
59881;DHT22;45751;51.380;10.326;2023-08-06T15:08:24;16.70;99.90
59881;DHT22;45751;51.380;10.326;2023-08-06T15:10:52;16.90;99.90
59881;DHT22;45751;51.380;10.326;2023-08-06T15:13:20;16.90;99.90
59881;DHT22;45751;51.380;10.326;2023-08-06T15:15:48;17.10;99.90
59881;DHT22;45751;51.380;10.326;2023-08-06T15:18:15;17.30;99.90
59881;DHT22;45751;51.380;10.326;2023-08-06T15:20:42;17.40;99.90
59881;DHT22;45751;51.380;10.326;2023-08-06T15:23:09;17.50;99.90
59881;DHT22;45751;51.380;10.326;2023-08-06T15:25:36;17.60;99.90
59881;DHT22;45751;51.380;10.326;2023-08-06T15:28:03;17.60;99.90
59881;DHT22;45751;51.380;10.326;2023-08-06T15:30:30;17.60;99.90
59881;DHT22;45751;51.380;10.326;2023-08-06T15:32:57;17.70;99.90